sensor_id;sensor_type;location;lat;lon;timestamp;temperature;humidity
17887;DHT22;9069;52.044;7.472;2023-02-12T00:02:40;11.70;99.90
17887;DHT22;9069;52.044;7.472;2023-02-12T00:05:07;11.70;99.90
17887;DHT22;9069;52.044;7.472;2023-02-12T00:07:33;11.70;99.90
17887;DHT22;9069;52.044;7.472;2023-02-12T00:10:00;11.70;99.90
17887;DHT22;9069;52.044;7.472;2023-02-12T00:12:27;11.70;99.90
17887;DHT22;9069;52.044;7.472;2023-02-12T00:14:54;11.70;99.90
17887;DHT22;9069;52.044;7.472;2023-02-12T00:17:20;11.70;99.90
17887;DHT22;9069;52.044;7.472;2023-02-12T00:19:47;11.60;99.90
17887;DHT22;9069;52.044;7.472;2023-02-12T00:22:14;11.60;99.90
17887;DHT22;9069;52.044;7.472;2023-02-12T00:24:41;11.60;99.90
17887;DHT22;9069;52.044;7.472;2023-02-12T00:27:07;11.60;99.90
17887;DHT22;9069;52.044;7.472;2023-02-12T00:29:35;11.60;99.90
17887;DHT22;9069;52.044;7.472;2023-02-12T00:32:04;11.60;99.90
17887;DHT22;9069;52.044;7.472;2023-02-12T00:34:31;11.60;99.90
17887;DHT22;9069;52.044;7.472;2023-02-12T00:36:58;11.60;99.90
17887;DHT22;9069;52.044;7.472;2023-02-12T00:39:25;11.60;99.90
17887;DHT22;9069;52.044;7.472;2023-02-12T00:41:52;11.60;99.90
17887;DHT22;9069;52.044;7.472;2023-02-12T00:44:18;11.60;99.90
17887;DHT22;9069;52.044;7.472;2023-02-12T00:46:45;11.60;99.90
17887;DHT22;9069;52.044;7.472;2023-02-12T00:49:12;11.60;99.90
17887;DHT22;9069;52.044;7.472;2023-02-12T00:51:39;11.60;99.90
17887;DHT22;9069;52.044;7.472;2023-02-12T00:54:09;11.60;99.90
17887;DHT22;9069;52.044;7.472;2023-02-12T00:56:36;11.60;99.90
17887;DHT22;9069;52.044;7.472;2023-02-12T00:59:02;11.60;99.90
17887;DHT22;9069;52.044;7.472;2023-02-12T01:01:29;11.60;99.90
17887;DHT22;9069;52.044;7.472;2023-02-12T01:03:56;11.60;99.90
17887;DHT22;9069;52.044;7.472;2023-02-12T01:06:24;11.60;99.90
17887;DHT22;9069;52.044;7.472;2023-02-12T01:08:52;11.50;99.90
17887;DHT22;9069;52.044;7.472;2023-02-12T01:11:19;11.50;99.90
17887;DHT22;9069;52.044;7.472;2023-02-12T01:13:47;11.60;99.90
17887;DHT22;9069;52.044;7.472;2023-02-12T01:16:17;11.50;99.90
17887;DHT22;9069;52.044;7.472;2023-02-12T01:18:45;11.50;99.90
17887;DHT22;9069;52.044;7.472;2023-02-12T01:21:18;11.50;99.90
17887;DHT22;9069;52.044;7.472;2023-02-12T01:23:46;11.50;99.90
17887;DHT22;9069;52.044;7.472;2023-02-12T01:26:14;11.50;99.90
17887;DHT22;9069;52.044;7.472;2023-02-12T01:28:43;11.50;99.90
17887;DHT22;9069;52.044;7.472;2023-02-12T01:31:12;11.50;99.90
17887;DHT22;9069;52.044;7.472;2023-02-12T01:33:40;11.50;99.90
17887;DHT22;9069;52.044;7.472;2023-02-12T01:36:08;11.50;99.90
17887;DHT22;9069;52.044;7.472;2023-02-12T01:38:35;11.50;99.90
17887;DHT22;9069;52.044;7.472;2023-02-12T01:41:13;11.50;99.90
17887;DHT22;9069;52.044;7.472;2023-02-12T01:43:42;11.50;99.90
17887;DHT22;9069;52.044;7.472;2023-02-12T01:46:12;11.50;99.90
17887;DHT22;9069;52.044;7.472;2023-02-12T01:48:42;11.50;99.90
17887;DHT22;9069;52.044;7.472;2023-02-12T01:51:13;11.50;99.90
17887;DHT22;9069;52.044;7.472;2023-02-12T01:53:48;11.50;99.90
17887;DHT22;9069;52.044;7.472;2023-02-12T01:56:16;11.50;99.90
17887;DHT22;9069;52.044;7.472;2023-02-12T01:58:44;11.50;99.90
17887;DHT22;9069;52.044;7.472;2023-02-12T02:01:19;11.50;99.90
17887;DHT22;9069;52.044;7.472;2023-02-12T02:03:50;11.50;99.90
17887;DHT22;9069;52.044;7.472;2023-02-12T02:06:27;11.50;99.90
17887;DHT22;9069;52.044;7.472;2023-02-12T02:08:55;11.50;99.90
17887;DHT22;9069;52.044;7.472;2023-02-12T02:11:22;11.50;99.90
17887;DHT22;9069;52.044;7.472;2023-02-12T02:14:07;11.40;99.90
17887;DHT22;9069;52.044;7.472;2023-02-12T02:28:42;11.40;99.90
17887;DHT22;9069;52.044;7.472;2023-02-12T02:31:35;11.40;99.90
17887;DHT22;9069;52.044;7.472;2023-02-12T02:37:14;11.40;99.90
17887;DHT22;9069;52.044;7.472;2023-02-12T02:42:45;11.30;99.90
17887;DHT22;9069;52.044;7.472;2023-02-12T02:45:42;11.30;99.90
17887;DHT22;9069;52.044;7.472;2023-02-12T02:48:16;11.30;99.90
17887;DHT22;9069;52.044;7.472;2023-02-12T02:50:59;11.30;99.90
17887;DHT22;9069;52.044;7.472;2023-02-12T02:53:29;11.30;99.90
17887;DHT22;9069;52.044;7.472;2023-02-12T02:55:59;11.30;99.90
17887;DHT22;9069;52.044;7.472;2023-02-12T02:58:33;11.30;99.90
17887;DHT22;9069;52.044;7.472;2023-02-12T03:01:17;11.30;99.90
17887;DHT22;9069;52.044;7.472;2023-02-12T03:03:55;11.30;99.90
17887;DHT22;9069;52.044;7.472;2023-02-12T03:09:02;11.30;99.90
17887;DHT22;9069;52.044;7.472;2023-02-12T03:11:32;11.30;99.90
17887;DHT22;9069;52.044;7.472;2023-02-12T03:14:11;11.30;99.90
17887;DHT22;9069;52.044;7.472;2023-02-12T03:16:45;11.30;99.90
17887;DHT22;9069;52.044;7.472;2023-02-12T03:19:20;11.30;99.90
17887;DHT22;9069;52.044;7.472;2023-02-12T03:22:07;11.30;99.90
17887;DHT22;9069;52.044;7.472;2023-02-12T03:24:41;11.30;99.90
17887;DHT22;9069;52.044;7.472;2023-02-12T03:29:54;11.30;99.90
17887;DHT22;9069;52.044;7.472;2023-02-12T03:35:29;11.30;99.90
17887;DHT22;9069;52.044;7.472;2023-02-12T03:40:34;11.30;99.90
17887;DHT22;9069;52.044;7.472;2023-02-12T03:43:23;11.30;99.90
17887;DHT22;9069;52.044;7.472;2023-02-12T03:45:57;11.30;99.90
17887;DHT22;9069;52.044;7.472;2023-02-12T03:48:40;11.30;99.90
17887;DHT22;9069;52.044;7.472;2023-02-12T03:51:38;11.30;99.90
17887;DHT22;9069;52.044;7.472;2023-02-12T03:54:07;11.30;99.90
17887;DHT22;9069;52.044;7.472;2023-02-12T03:56:43;11.30;99.90
17887;DHT22;9069;52.044;7.472;2023-02-12T03:59:13;11.30;99.90
17887;DHT22;9069;52.044;7.472;2023-02-12T04:01:40;11.30;99.90
17887;DHT22;9069;52.044;7.472;2023-02-12T04:04:09;11.20;99.90
17887;DHT22;9069;52.044;7.472;2023-02-12T04:06:36;11.30;99.90
17887;DHT22;9069;52.044;7.472;2023-02-12T04:09:06;11.20;99.90
17887;DHT22;9069;52.044;7.472;2023-02-12T04:17:49;11.30;99.90
17887;DHT22;9069;52.044;7.472;2023-02-12T04:23:47;11.20;99.90
17887;DHT22;9069;52.044;7.472;2023-02-12T04:31:35;11.20;99.90
17887;DHT22;9069;52.044;7.472;2023-02-12T04:34:32;11.20;99.90
17887;DHT22;9069;52.044;7.472;2023-02-12T04:37:58;11.20;99.90
17887;DHT22;9069;52.044;7.472;2023-02-12T04:39:59;11.20;99.90
17887;DHT22;9069;52.044;7.472;2023-02-12T04:42:28;11.20;99.90
17887;DHT22;9069;52.044;7.472;2023-02-12T04:44:55;11.20;99.90
17887;DHT22;9069;52.044;7.472;2023-02-12T04:47:22;11.20;99.90
17887;DHT22;9069;52.044;7.472;2023-02-12T04:49:48;11.20;99.90
17887;DHT22;9069;52.044;7.472;2023-02-12T04:52:15;11.20;99.90
17887;DHT22;9069;52.044;7.472;2023-02-12T04:54:42;11.20;99.90
17887;DHT22;9069;52.044;7.472;2023-02-12T04:57:08;11.20;99.90
17887;DHT22;9069;52.044;7.472;2023-02-12T04:59:35;11.20;99.90
17887;DHT22;9069;52.044;7.472;2023-02-12T05:02:02;11.20;99.90
17887;DHT22;9069;52.044;7.472;2023-02-12T05:04:28;11.20;99.90
17887;DHT22;9069;52.044;7.472;2023-02-12T05:06:55;11.10;99.90
17887;DHT22;9069;52.044;7.472;2023-02-12T05:09:22;11.20;99.90
17887;DHT22;9069;52.044;7.472;2023-02-12T05:11:48;11.20;99.90
17887;DHT22;9069;52.044;7.472;2023-02-12T05:14:15;11.20;99.90
17887;DHT22;9069;52.044;7.472;2023-02-12T05:16:42;11.20;99.90
17887;DHT22;9069;52.044;7.472;2023-02-12T05:19:09;11.20;99.90
17887;DHT22;9069;52.044;7.472;2023-02-12T05:21:37;11.20;99.90
17887;DHT22;9069;52.044;7.472;2023-02-12T05:24:04;11.20;99.90
17887;DHT22;9069;52.044;7.472;2023-02-12T05:26:31;11.20;99.90
17887;DHT22;9069;52.044;7.472;2023-02-12T05:28:58;11.20;99.90
17887;DHT22;9069;52.044;7.472;2023-02-12T05:31:24;11.20;99.90
17887;DHT22;9069;52.044;7.472;2023-02-12T05:33:52;11.20;99.90
17887;DHT22;9069;52.044;7.472;2023-02-12T05:36:21;11.20;99.90
17887;DHT22;9069;52.044;7.472;2023-02-12T05:38:48;11.20;99.90
17887;DHT22;9069;52.044;7.472;2023-02-12T05:41:22;11.20;99.90
17887;DHT22;9069;52.044;7.472;2023-02-12T05:43:49;11.20;99.90
17887;DHT22;9069;52.044;7.472;2023-02-12T05:46:17;11.10;99.90
17887;DHT22;9069;52.044;7.472;2023-02-12T05:48:45;11.10;99.90
17887;DHT22;9069;52.044;7.472;2023-02-12T05:51:17;11.10;99.90
17887;DHT22;9069;52.044;7.472;2023-02-12T05:53:45;11.10;99.90
17887;DHT22;9069;52.044;7.472;2023-02-12T05:56:13;11.10;99.90
17887;DHT22;9069;52.044;7.472;2023-02-12T05:58:43;11.10;99.90
17887;DHT22;9069;52.044;7.472;2023-02-12T06:01:16;11.10;99.90
17887;DHT22;9069;52.044;7.472;2023-02-12T06:03:43;11.10;99.90
17887;DHT22;9069;52.044;7.472;2023-02-12T06:06:10;11.10;99.90
17887;DHT22;9069;52.044;7.472;2023-02-12T06:08:37;11.10;99.90
17887;DHT22;9069;52.044;7.472;2023-02-12T06:11:06;11.10;99.90
17887;DHT22;9069;52.044;7.472;2023-02-12T06:13:33;11.10;99.90
17887;DHT22;9069;52.044;7.472;2023-02-12T06:16:00;11.10;99.90
17887;DHT22;9069;52.044;7.472;2023-02-12T06:18:27;11.10;99.90
17887;DHT22;9069;52.044;7.472;2023-02-12T06:20:54;11.10;99.90
17887;DHT22;9069;52.044;7.472;2023-02-12T06:23:22;11.10;99.90
17887;DHT22;9069;52.044;7.472;2023-02-12T06:25:50;11.10;99.90
17887;DHT22;9069;52.044;7.472;2023-02-12T06:28:21;11.10;99.90
17887;DHT22;9069;52.044;7.472;2023-02-12T06:30:47;11.10;99.90
17887;DHT22;9069;52.044;7.472;2023-02-12T06:33:14;11.10;99.90
17887;DHT22;9069;52.044;7.472;2023-02-12T06:35:41;11.10;99.90
17887;DHT22;9069;52.044;7.472;2023-02-12T06:38:08;11.10;99.90
17887;DHT22;9069;52.044;7.472;2023-02-12T06:40:35;11.10;99.90
17887;DHT22;9069;52.044;7.472;2023-02-12T06:43:01;11.10;99.90
17887;DHT22;9069;52.044;7.472;2023-02-12T06:45:29;11.10;99.90
17887;DHT22;9069;52.044;7.472;2023-02-12T06:47:56;11.00;99.90
17887;DHT22;9069;52.044;7.472;2023-02-12T06:50:23;11.00;99.90
17887;DHT22;9069;52.044;7.472;2023-02-12T06:52:50;11.10;99.90
17887;DHT22;9069;52.044;7.472;2023-02-12T06:55:17;11.00;99.90
17887;DHT22;9069;52.044;7.472;2023-02-12T06:57:43;11.00;99.90
17887;DHT22;9069;52.044;7.472;2023-02-12T07:00:11;11.00;99.90
17887;DHT22;9069;52.044;7.472;2023-02-12T07:02:38;11.10;99.90
17887;DHT22;9069;52.044;7.472;2023-02-12T07:05:05;11.00;99.90
17887;DHT22;9069;52.044;7.472;2023-02-12T07:07:32;11.10;99.90
17887;DHT22;9069;52.044;7.472;2023-02-12T07:09:58;11.00;99.90
17887;DHT22;9069;52.044;7.472;2023-02-12T07:12:25;11.00;99.90
17887;DHT22;9069;52.044;7.472;2023-02-12T07:14:52;11.00;99.90
17887;DHT22;9069;52.044;7.472;2023-02-12T07:17:18;11.00;99.90
17887;DHT22;9069;52.044;7.472;2023-02-12T07:19:45;11.00;99.90
17887;DHT22;9069;52.044;7.472;2023-02-12T07:22:12;11.10;99.90
17887;DHT22;9069;52.044;7.472;2023-02-12T07:24:39;11.10;99.90
17887;DHT22;9069;52.044;7.472;2023-02-12T07:27:05;11.10;99.90
17887;DHT22;9069;52.044;7.472;2023-02-12T07:29:32;11.10;99.90
17887;DHT22;9069;52.044;7.472;2023-02-12T07:32:00;11.10;99.90
17887;DHT22;9069;52.044;7.472;2023-02-12T07:34:27;11.10;99.90
17887;DHT22;9069;52.044;7.472;2023-02-12T07:36:53;11.10;99.90
17887;DHT22;9069;52.044;7.472;2023-02-12T07:39:20;11.10;99.90
17887;DHT22;9069;52.044;7.472;2023-02-12T07:41:47;11.10;99.90
17887;DHT22;9069;52.044;7.472;2023-02-12T07:44:14;11.10;99.90
17887;DHT22;9069;52.044;7.472;2023-02-12T07:46:45;11.10;99.90
17887;DHT22;9069;52.044;7.472;2023-02-12T07:49:17;11.10;99.90
17887;DHT22;9069;52.044;7.472;2023-02-12T07:51:45;11.10;99.90
17887;DHT22;9069;52.044;7.472;2023-02-12T07:54:12;11.10;99.90
17887;DHT22;9069;52.044;7.472;2023-02-12T07:56:40;11.10;99.90
17887;DHT22;9069;52.044;7.472;2023-02-12T07:59:11;11.20;99.90
17887;DHT22;9069;52.044;7.472;2023-02-12T08:01:41;11.20;99.90
17887;DHT22;9069;52.044;7.472;2023-02-12T08:04:13;11.20;99.90
17887;DHT22;9069;52.044;7.472;2023-02-12T08:06:42;11.20;99.90
17887;DHT22;9069;52.044;7.472;2023-02-12T08:09:11;11.20;99.90
17887;DHT22;9069;52.044;7.472;2023-02-12T08:11:39;11.20;99.90
17887;DHT22;9069;52.044;7.472;2023-02-12T08:14:07;11.20;99.90
17887;DHT22;9069;52.044;7.472;2023-02-12T08:16:38;11.20;99.90
17887;DHT22;9069;52.044;7.472;2023-02-12T08:19:07;11.20;99.90
17887;DHT22;9069;52.044;7.472;2023-02-12T08:21:49;11.30;99.90
17887;DHT22;9069;52.044;7.472;2023-02-12T08:24:16;11.30;99.90
17887;DHT22;9069;52.044;7.472;2023-02-12T08:26:43;11.30;99.90
17887;DHT22;9069;52.044;7.472;2023-02-12T08:29:13;11.30;99.90
17887;DHT22;9069;52.044;7.472;2023-02-12T08:31:45;11.30;99.90
17887;DHT22;9069;52.044;7.472;2023-02-12T08:34:17;11.40;99.90
17887;DHT22;9069;52.044;7.472;2023-02-12T08:36:45;11.40;99.90
17887;DHT22;9069;52.044;7.472;2023-02-12T08:39:13;11.40;99.90
17887;DHT22;9069;52.044;7.472;2023-02-12T08:41:40;11.40;99.90
17887;DHT22;9069;52.044;7.472;2023-02-12T08:44:10;11.50;99.90
17887;DHT22;9069;52.044;7.472;2023-02-12T08:46:41;11.50;99.90
17887;DHT22;9069;52.044;7.472;2023-02-12T08:49:13;11.50;99.90
17887;DHT22;9069;52.044;7.472;2023-02-12T08:51:43;11.50;99.90
17887;DHT22;9069;52.044;7.472;2023-02-12T08:54:13;11.60;99.90
17887;DHT22;9069;52.044;7.472;2023-02-12T08:56:40;11.60;99.90
17887;DHT22;9069;52.044;7.472;2023-02-12T08:59:08;11.60;99.90
17887;DHT22;9069;52.044;7.472;2023-02-12T09:01:37;11.70;99.90
17887;DHT22;9069;52.044;7.472;2023-02-12T09:04:05;11.70;99.90
17887;DHT22;9069;52.044;7.472;2023-02-12T09:06:33;11.70;99.90
17887;DHT22;9069;52.044;7.472;2023-02-12T09:09:00;11.80;99.90
17887;DHT22;9069;52.044;7.472;2023-02-12T09:11:28;11.90;99.90
17887;DHT22;9069;52.044;7.472;2023-02-12T09:14:03;11.90;99.90
17887;DHT22;9069;52.044;7.472;2023-02-12T09:16:32;11.90;99.90
17887;DHT22;9069;52.044;7.472;2023-02-12T09:18:59;12.00;99.90
17887;DHT22;9069;52.044;7.472;2023-02-12T09:21:26;12.00;99.90
17887;DHT22;9069;52.044;7.472;2023-02-12T09:23:53;12.10;99.90
17887;DHT22;9069;52.044;7.472;2023-02-12T09:26:21;12.10;99.90
17887;DHT22;9069;52.044;7.472;2023-02-12T09:28:49;12.20;99.90
17887;DHT22;9069;52.044;7.472;2023-02-12T09:31:21;12.20;99.90
17887;DHT22;9069;52.044;7.472;2023-02-12T09:33:48;12.20;99.90
17887;DHT22;9069;52.044;7.472;2023-02-12T09:36:20;12.30;99.90
17887;DHT22;9069;52.044;7.472;2023-02-12T09:38:47;12.30;99.90
17887;DHT22;9069;52.044;7.472;2023-02-12T09:52:53;12.40;99.90
17887;DHT22;9069;52.044;7.472;2023-02-12T09:55:26;12.50;99.90
17887;DHT22;9069;52.044;7.472;2023-02-12T09:57:54;12.50;99.90
17887;DHT22;9069;52.044;7.472;2023-02-12T10:00:24;12.50;99.90
17887;DHT22;9069;52.044;7.472;2023-02-12T10:02:54;12.60;99.90
17887;DHT22;9069;52.044;7.472;2023-02-12T10:05:25;12.60;99.90
17887;DHT22;9069;52.044;7.472;2023-02-12T10:13:40;12.70;99.90
17887;DHT22;9069;52.044;7.472;2023-02-12T10:19:17;12.80;99.90
17887;DHT22;9069;52.044;7.472;2023-02-12T10:21:58;12.90;99.90
17887;DHT22;9069;52.044;7.472;2023-02-12T10:27:19;13.00;99.90
17887;DHT22;9069;52.044;7.472;2023-02-12T10:29:48;13.10;99.90
17887;DHT22;9069;52.044;7.472;2023-02-12T10:32:27;13.20;99.90
17887;DHT22;9069;52.044;7.472;2023-02-12T10:34:56;13.30;99.90
17887;DHT22;9069;52.044;7.472;2023-02-12T10:37:50;13.30;99.90
17887;DHT22;9069;52.044;7.472;2023-02-12T10:42:51;13.40;99.90
17887;DHT22;9069;52.044;7.472;2023-02-12T10:45:24;13.40;99.90
17887;DHT22;9069;52.044;7.472;2023-02-12T10:47:54;13.50;99.90
17887;DHT22;9069;52.044;7.472;2023-02-12T10:53:01;13.60;99.80
17887;DHT22;9069;52.044;7.472;2023-02-12T10:55:35;13.60;99.90
17887;DHT22;9069;52.044;7.472;2023-02-12T10:58:03;13.60;99.70
17887;DHT22;9069;52.044;7.472;2023-02-12T11:00:32;13.70;99.60
17887;DHT22;9069;52.044;7.472;2023-02-12T11:05:39;13.70;98.90
17887;DHT22;9069;52.044;7.472;2023-02-12T11:08:09;13.70;99.30
17887;DHT22;9069;52.044;7.472;2023-02-12T11:10:51;13.70;99.30
17887;DHT22;9069;52.044;7.472;2023-02-12T11:13:23;13.80;99.40
17887;DHT22;9069;52.044;7.472;2023-02-12T11:15:51;13.80;99.00
17887;DHT22;9069;52.044;7.472;2023-02-12T11:18:24;13.80;99.50
17887;DHT22;9069;52.044;7.472;2023-02-12T11:26:19;13.90;98.80
17887;DHT22;9069;52.044;7.472;2023-02-12T11:29:08;13.90;98.60
17887;DHT22;9069;52.044;7.472;2023-02-12T11:31:59;13.90;98.50
17887;DHT22;9069;52.044;7.472;2023-02-12T11:34:26;13.90;98.50
17887;DHT22;9069;52.044;7.472;2023-02-12T11:36:53;13.90;98.90
17887;DHT22;9069;52.044;7.472;2023-02-12T11:39:33;13.90;98.90
17887;DHT22;9069;52.044;7.472;2023-02-12T11:42:04;13.90;98.50
17887;DHT22;9069;52.044;7.472;2023-02-12T11:44:36;13.90;98.80
17887;DHT22;9069;52.044;7.472;2023-02-12T11:47:10;14.00;98.60
17887;DHT22;9069;52.044;7.472;2023-02-12T11:49:55;14.00;98.70
17887;DHT22;9069;52.044;7.472;2023-02-12T11:52:26;14.00;98.30
17887;DHT22;9069;52.044;7.472;2023-02-12T11:55:21;14.00;98.60
17887;DHT22;9069;52.044;7.472;2023-02-12T11:57:54;14.10;98.20
17887;DHT22;9069;52.044;7.472;2023-02-12T12:03:57;14.20;98.20
17887;DHT22;9069;52.044;7.472;2023-02-12T12:06:28;14.20;98.10
17887;DHT22;9069;52.044;7.472;2023-02-12T12:09:16;14.30;98.80
17887;DHT22;9069;52.044;7.472;2023-02-12T12:14:30;14.40;98.40
17887;DHT22;9069;52.044;7.472;2023-02-12T12:17:12;14.40;98.30
17887;DHT22;9069;52.044;7.472;2023-02-12T12:20:05;14.50;97.70
17887;DHT22;9069;52.044;7.472;2023-02-12T12:23:02;14.50;98.10
17887;DHT22;9069;52.044;7.472;2023-02-12T12:25:35;14.60;97.80
17887;DHT22;9069;52.044;7.472;2023-02-12T12:28:42;14.60;98.10
17887;DHT22;9069;52.044;7.472;2023-02-12T12:31:25;14.60;97.50
17887;DHT22;9069;52.044;7.472;2023-02-12T12:37:41;14.70;97.60
17887;DHT22;9069;52.044;7.472;2023-02-12T12:56:36;14.80;97.10
17887;DHT22;9069;52.044;7.472;2023-02-12T13:19:01;14.90;96.20
17887;DHT22;9069;52.044;7.472;2023-02-12T13:22:01;14.90;96.50
17887;DHT22;9069;52.044;7.472;2023-02-12T13:24:55;14.90;96.30
17887;DHT22;9069;52.044;7.472;2023-02-12T13:27:31;15.00;96.40
17887;DHT22;9069;52.044;7.472;2023-02-12T13:32:49;15.00;96.50
17887;DHT22;9069;52.044;7.472;2023-02-12T13:35:20;15.00;96.30
17887;DHT22;9069;52.044;7.472;2023-02-12T13:37:51;15.00;96.50
17887;DHT22;9069;52.044;7.472;2023-02-12T13:40:25;15.00;96.30
17887;DHT22;9069;52.044;7.472;2023-02-12T13:51:43;15.00;95.30
17887;DHT22;9069;52.044;7.472;2023-02-12T13:56:45;14.90;96.00
17887;DHT22;9069;52.044;7.472;2023-02-12T14:04:29;14.90;95.70
17887;DHT22;9069;52.044;7.472;2023-02-12T14:07:06;14.90;96.10
17887;DHT22;9069;52.044;7.472;2023-02-12T14:15:05;14.80;95.40
17887;DHT22;9069;52.044;7.472;2023-02-12T14:27:58;14.70;95.30
17887;DHT22;9069;52.044;7.472;2023-02-12T14:30:33;14.60;95.30
17887;DHT22;9069;52.044;7.472;2023-02-12T14:41:43;14.50;95.20
17887;DHT22;9069;52.044;7.472;2023-02-12T14:46:48;14.50;95.50
17887;DHT22;9069;52.044;7.472;2023-02-12T14:49:27;14.40;95.70
17887;DHT22;9069;52.044;7.472;2023-02-12T14:57:30;14.40;95.40
17887;DHT22;9069;52.044;7.472;2023-02-12T15:00:00;14.30;95.40
17887;DHT22;9069;52.044;7.472;2023-02-12T15:02:31;14.30;96.00
17887;DHT22;9069;52.044;7.472;2023-02-12T15:05:15;14.30;95.80
17887;DHT22;9069;52.044;7.472;2023-02-12T15:08:07;14.30;95.50
17887;DHT22;9069;52.044;7.472;2023-02-12T15:11:00;14.20;95.50
17887;DHT22;9069;52.044;7.472;2023-02-12T15:21:50;14.10;95.70
17887;DHT22;9069;52.044;7.472;2023-02-12T15:24:25;14.10;96.00
17887;DHT22;9069;52.044;7.472;2023-02-12T15:26:57;14.10;95.90
17887;DHT22;9069;52.044;7.472;2023-02-12T15:29:28;14.00;95.80
17887;DHT22;9069;52.044;7.472;2023-02-12T15:31:57;14.00;96.00
17887;DHT22;9069;52.044;7.472;2023-02-12T15:34:31;14.00;96.10
17887;DHT22;9069;52.044;7.472;2023-02-12T15:37:00;14.00;96.00
17887;DHT22;9069;52.044;7.472;2023-02-12T15:39:33;13.90;96.10
17887;DHT22;9069;52.044;7.472;2023-02-12T15:42:03;13.90;96.00
17887;DHT22;9069;52.044;7.472;2023-02-12T15:44:31;13.90;96.30
17887;DHT22;9069;52.044;7.472;2023-02-12T15:47:00;13.90;96.30
17887;DHT22;9069;52.044;7.472;2023-02-12T15:49:33;13.90;96.30
17887;DHT22;9069;52.044;7.472;2023-02-12T15:52:03;13.80;96.10
17887;DHT22;9069;52.044;7.472;2023-02-12T15:54:32;13.80;96.20
17887;DHT22;9069;52.044;7.472;2023-02-12T15:57:00;13.80;96.30
17887;DHT22;9069;52.044;7.472;2023-02-12T15:59:27;13.80;96.30
17887;DHT22;9069;52.044;7.472;2023-02-12T16:01:59;13.80;96.30
17887;DHT22;9069;52.044;7.472;2023-02-12T16:04:30;13.80;96.20
17887;DHT22;9069;52.044;7.472;2023-02-12T16:06:59;13.80;96.30
17887;DHT22;9069;52.044;7.472;2023-02-12T16:09:27;13.70;96.40
17887;DHT22;9069;52.044;7.472;2023-02-12T16:11:58;13.70;96.50
17887;DHT22;9069;52.044;7.472;2023-02-12T16:14:30;13.70;96.40
17887;DHT22;9069;52.044;7.472;2023-02-12T16:16:59;13.70;96.20
17887;DHT22;9069;52.044;7.472;2023-02-12T16:19:30;13.70;96.40
17887;DHT22;9069;52.044;7.472;2023-02-12T16:22:08;13.70;96.20
17887;DHT22;9069;52.044;7.472;2023-02-12T16:24:46;13.60;96.40
17887;DHT22;9069;52.044;7.472;2023-02-12T16:29:50;13.60;96.50
17887;DHT22;9069;52.044;7.472;2023-02-12T16:32:44;13.60;96.10
17887;DHT22;9069;52.044;7.472;2023-02-12T16:50:50;13.40;96.60
17887;DHT22;9069;52.044;7.472;2023-02-12T16:53:36;13.40;96.60
17887;DHT22;9069;52.044;7.472;2023-02-12T16:56:17;13.40;96.60
17887;DHT22;9069;52.044;7.472;2023-02-12T16:58:57;13.40;96.80
17887;DHT22;9069;52.044;7.472;2023-02-12T17:01:27;13.40;96.60
17887;DHT22;9069;52.044;7.472;2023-02-12T17:03:55;13.30;96.70
17887;DHT22;9069;52.044;7.472;2023-02-12T17:06:26;13.30;96.80
17887;DHT22;9069;52.044;7.472;2023-02-12T17:08:52;13.30;96.80
17887;DHT22;9069;52.044;7.472;2023-02-12T17:11:19;13.30;96.90
17887;DHT22;9069;52.044;7.472;2023-02-12T17:13:48;13.30;96.90
17887;DHT22;9069;52.044;7.472;2023-02-12T17:16:15;13.30;96.80
17887;DHT22;9069;52.044;7.472;2023-02-12T17:18:56;13.30;96.80
17887;DHT22;9069;52.044;7.472;2023-02-12T17:21:26;13.30;96.90
17887;DHT22;9069;52.044;7.472;2023-02-12T17:23:54;13.30;96.80
17887;DHT22;9069;52.044;7.472;2023-02-12T17:26:22;13.20;96.80
17887;DHT22;9069;52.044;7.472;2023-02-12T17:28:49;13.20;96.80
17887;DHT22;9069;52.044;7.472;2023-02-12T17:31:15;13.20;96.90
17887;DHT22;9069;52.044;7.472;2023-02-12T17:33:42;13.20;96.90
17887;DHT22;9069;52.044;7.472;2023-02-12T17:36:10;13.20;96.90
17887;DHT22;9069;52.044;7.472;2023-02-12T17:38:37;13.20;97.00
17887;DHT22;9069;52.044;7.472;2023-02-12T17:41:10;13.20;97.10
17887;DHT22;9069;52.044;7.472;2023-02-12T17:43:37;13.20;97.00
17887;DHT22;9069;52.044;7.472;2023-02-12T17:46:12;13.10;97.10
17887;DHT22;9069;52.044;7.472;2023-02-12T17:48:39;13.10;97.00
17887;DHT22;9069;52.044;7.472;2023-02-12T17:51:08;13.10;97.20
17887;DHT22;9069;52.044;7.472;2023-02-12T17:53:35;13.10;97.10
17887;DHT22;9069;52.044;7.472;2023-02-12T17:56:01;13.10;97.20
17887;DHT22;9069;52.044;7.472;2023-02-12T17:58:28;13.10;97.30
17887;DHT22;9069;52.044;7.472;2023-02-12T18:00:55;13.10;97.30
17887;DHT22;9069;52.044;7.472;2023-02-12T18:03:22;13.10;97.40
17887;DHT22;9069;52.044;7.472;2023-02-12T18:05:49;13.00;97.30
17887;DHT22;9069;52.044;7.472;2023-02-12T18:08:16;13.00;97.30
17887;DHT22;9069;52.044;7.472;2023-02-12T18:10:43;13.00;97.40
17887;DHT22;9069;52.044;7.472;2023-02-12T18:13:10;13.00;97.40
17887;DHT22;9069;52.044;7.472;2023-02-12T18:15:39;13.00;97.40
17887;DHT22;9069;52.044;7.472;2023-02-12T18:18:06;13.00;97.40
17887;DHT22;9069;52.044;7.472;2023-02-12T18:20:32;13.00;97.50
17887;DHT22;9069;52.044;7.472;2023-02-12T18:22:59;13.00;97.50
17887;DHT22;9069;52.044;7.472;2023-02-12T18:25:26;12.90;97.50
17887;DHT22;9069;52.044;7.472;2023-02-12T18:27:53;12.90;97.50
17887;DHT22;9069;52.044;7.472;2023-02-12T18:30:19;12.90;97.50
17887;DHT22;9069;52.044;7.472;2023-02-12T18:32:46;12.90;97.50
17887;DHT22;9069;52.044;7.472;2023-02-12T18:35:13;12.90;97.60
17887;DHT22;9069;52.044;7.472;2023-02-12T18:37:41;12.90;97.60
17887;DHT22;9069;52.044;7.472;2023-02-12T18:40:09;12.90;97.60
17887;DHT22;9069;52.044;7.472;2023-02-12T18:42:36;12.90;97.60
17887;DHT22;9069;52.044;7.472;2023-02-12T18:45:03;12.90;97.60
17887;DHT22;9069;52.044;7.472;2023-02-12T18:47:30;12.80;97.60
17887;DHT22;9069;52.044;7.472;2023-02-12T18:49:57;12.90;97.60
17887;DHT22;9069;52.044;7.472;2023-02-12T18:52:24;12.80;97.70
17887;DHT22;9069;52.044;7.472;2023-02-12T18:54:51;12.80;97.60
17887;DHT22;9069;52.044;7.472;2023-02-12T18:57:19;12.80;97.70
17887;DHT22;9069;52.044;7.472;2023-02-12T18:59:45;12.80;97.70
17887;DHT22;9069;52.044;7.472;2023-02-12T19:02:12;12.80;97.70
17887;DHT22;9069;52.044;7.472;2023-02-12T19:04:39;12.80;97.70
17887;DHT22;9069;52.044;7.472;2023-02-12T19:07:06;12.80;97.70
17887;DHT22;9069;52.044;7.472;2023-02-12T19:09:33;12.80;97.80
17887;DHT22;9069;52.044;7.472;2023-02-12T19:12:00;12.80;97.80
17887;DHT22;9069;52.044;7.472;2023-02-12T19:14:27;12.80;97.80
17887;DHT22;9069;52.044;7.472;2023-02-12T19:16:54;12.80;97.80
17887;DHT22;9069;52.044;7.472;2023-02-12T19:19:21;12.70;97.80
17887;DHT22;9069;52.044;7.472;2023-02-12T19:21:48;12.70;97.80
17887;DHT22;9069;52.044;7.472;2023-02-12T19:24:15;12.70;97.80
17887;DHT22;9069;52.044;7.472;2023-02-12T19:26:42;12.70;97.80
17887;DHT22;9069;52.044;7.472;2023-02-12T19:29:11;12.70;97.90
17887;DHT22;9069;52.044;7.472;2023-02-12T19:31:42;12.70;97.90
17887;DHT22;9069;52.044;7.472;2023-02-12T19:34:14;12.70;97.90